ADDS METAR Data INFO
IDs: Format: Raw Decoded Include TAF

Data at: 1012 UTC 14 Dec 2017

PAPG 140956Z AUTO VRB05G19KT 5SM RA BKN026 OVC043 09/06 RMK AO2 SLPNO P0015 T00890061 $
PAPG 140937Z AUTO 09009KT 050V130 5SM -RA BR FEW022 BKN027 OVC043 08/06 RMK AO2 P0011 $
PAPG 140927Z AUTO 13009G16KT 6SM RA SCT024 BKN030 OVC043 09/06 RMK AO2 P0008 $
PAPG 140914Z AUTO VRB06G19KT 8SM -RA SCT024 BKN029 OVC038 08/06 RMK AO2 P0005 $
PAPG 140856Z AUTO 10012G18KT 10SM -RA SCT025 BKN030 OVC049 09/06 RMK AO2 SLPNO P0009 60035 T00890061 401000067 $
PAPG 140756Z AUTO 00000KT 7SM -RA BKN027 BKN031 OVC039 09/07 RMK AO2 SLPNO P0009 T00890067 $
PAPG 140656Z 00000KT 9SM -RA BKN027 OVC041 08/07 RMK AO2 SLPNO P0017 T00780072 $
PAPG 140556Z 27006KT 7SM RA FEW013 OVC025 08/07 A3014 RMK AO2 SLP212 P0028 60081 T00780072 10089 20078 $
PAPG 140456Z 26006KT 7SM RA FEW016 BKN022 OVC030 08/07 A3017 RMK AO2 SLP222 P0014 T00780072 $
PAPG 140356Z 00000KT 5SM -RA BR FEW017 BKN022 OVC027 08/07 A3019 RMK AO2 SLP229 P0013 T00830067 $
PAPG 140340Z 00000KT 6SM -RA BR BKN022 BKN030 OVC050 08/07 A3021 RMK AO2 P0010 $
PAPG 140256Z 13009G14KT 100V160 8SM -RA SCT021 SCT032 OVC048 09/07 RMK AO2 SLPNO P0009 60026 T00890067 $
PAPG 140243Z 13012G21KT 10SM -RA FEW019 BKN032 OVC048 09/07 RMK AO2 P0008 $
PAPG 140156Z 32004KT 10SM -RA SCT022 BKN026 OVC044 08/07 A3025 RMK AO2 SLP249 P0011 T00830067 $
PAPG 140056Z VRB03KT 10SM -RA BKN024 OVC044 09/06 A3025 RMK AO2 SLP249 P0006 T00890061 $
PAPG 132356Z 34005KT 7SM -RA BKN022 BKN026 OVC044 08/07 A3027 RMK AO2 SLP256 P0005 60017 T00830067 10094 20078 56010 $
PAPG 132256Z VRB04KT 7SM -RA FEW016 OVC024 08/07 A3027 RMK AO2 SLP256 P0007 T00830067 $
PAPG 132156Z 01008KT 10SM -RA FEW016 BKN024 OVC043 09/06 A3029 RMK AO2 SLP263 P0001 T00890056 $
PAPG 132145Z 03005KT 10SM -RA BKN026 OVC043 09/06 RMK AO2 P0001 $
PAPG 132056Z 09012G19KT 10SM -RA FEW017 SCT024 OVC043 09/06 A3030 RMK AO2 SLP266 P0001 60004 T00890056 58007 $
PAPG 131956Z 08006KT 10SM -RA FEW018 SCT025 OVC047 09/06 A3033 RMK AO2 SLP276 P0003 T00890056 $
PAPG 131941Z VRB04G14KT 10SM -RA SCT023 SCT028 OVC047 09/06 RMK AO2 P0003 $
PAPG 131920Z VRB06KT 10SM -RA BKN025 BKN029 OVC047 09/06 RMK AO2 P0003 $
PAPG 131856Z VRB03KT 10SM -RA FEW020 SCT033 OVC047 09/06 A3033 RMK AO2 SLP276 P0000 T00890056 $
PAPG 131756Z VRB05G16KT 10SM -RA FEW020 SCT031 OVC075 09/05 A3032 RMK AO2 RAB49 SLP273 P0000 60000 T00940050 10100 20078 $
PAPG 131656Z 32006KT 10SM SCT021 BKN031 09/04 A3031 RMK AO2 SLP270 T00940044 $
PAPG 131556Z VRB03KT 10SM FEW019 BKN031 09/04 A3031 RMK AO2 PRESFR SLP270 T00940044 $
PAPG 131502Z 32004KT 10SM FEW019 BKN031 09/04 A3035 RMK AO2 $
PAPG 131456Z AUTO VRB03KT 10SM BKN031 08/05 RMK AO2 SLPNO T00830050 $
PAPG 131356Z AUTO 00000KT 10SM FEW031 BKN048 BKN060 09/05 RMK AO2 SLPNO T00890050 $
PAPG 131256Z AUTO VRB04G14KT 10SM BKN050 OVC110 08/05 RMK AO2 SLPNO T00830050 $
PAPG 131156Z AUTO VRB03KT 10SM FEW027 OVC055 08/06 RMK AO2 RAE27 SLPNO P0000 60006 70030 T00780056 10083 20056 $
PAPG 131056Z AUTO VRB05G14KT 10SM -RA SCT025 OVC035 08/06 RMK AO2 RAE28B56 SLPNO P0001 T00830056 $
PAPG 131052Z AUTO 10004KT 10SM SCT025 OVC035 08/06 RMK AO2 RAE28 P0000 $
PAPG 131011Z AUTO 00000KT 9SM -RA BKN025 OVC050 08/06 RMK AO2 P0000 $
PAPG 130956Z AUTO 00000KT 7SM -RA SCT027 SCT035 OVC050 07/06 RMK AO2 RAB0857 SLPNO P0001 T00670061 $
PAPG 130920Z AUTO 00000KT 8SM -RA BKN031 BKN042 OVC050 07/06 RMK AO2 RAB0857 P0000 $
PAPG 130856Z AUTO 04009KT 10SM BKN029 OVC045 07/06 RMK AO2 RAE53 SLPNO P0001 60004 T00670056 400940050 $
PAPG 130756Z AUTO 09004KT 9SM -RA SCT009 BKN027 OVC042 06/06 RMK AO2 SLPNO P0000 T00610056 $
PAPG 130713Z AUTO VRB04KT 8SM -RA SCT009 SCT030 OVC040 06/06 RMK AO2 P0000 $
PAPG 130656Z 09004KT 5SM -RA BR FEW025 OVC038 06/06 A3031 RMK AO2 SLP269 P0003 T00610056 $
PAPG 130629Z 04004KT 5SM -RA BR SCT015 OVC038 06/06 RMK AO2 P0002 $
PAPG 130556Z 00000KT 9SM -RA BKN017 OVC038 06/05 A3030 RMK AO2 SLP267 P0001 60002 T00610050 10067 20050 $
PAPG 130554Z VRB03KT 10SM -RA OVC017 06/05 A3030 RMK AO2 P0001 $
PAPG 130456Z COR 00000KT 10SM -RA FEW019 OVC035 06/06 A3029 RMK AO2 RAB06 SLPNO P0001 T00610056 $
PAPG 130356Z 20004KT 10SM OVC040 06/06 A3029 RMK AO2 RAB24E49 SLP263 P0000 T00610056 $
PAPG 130256Z 00000KT 10SM OVC044 06/06 A3028 RMK AO2 SLP260 T00610056 51007 $
PAPG 130233Z 00000KT 10SM SCT025 OVC046 06/05 A3028 RMK AO2 $
PAPG 130211Z 00000KT 10SM BKN025 OVC048 06/05 A3028 RMK AO2 $
PAPG 130156Z 00000KT 10SM SCT004 SCT025 BKN060 06/06 A3028 RMK AO2 SLP260 T00560056 $
PAPG 130056Z 26004KT 10SM FEW005 SCT018 BKN070 06/06 A3028 RMK AO2 SLP260 T00610056 $
PAPG 122356Z 00000KT 10SM BCFG FEW002 SCT018 BKN050 06/06 A3026 RMK AO2 SLP253 P0001 60018 T00610061 10072 20061 51014 $
PAPG 122256Z 00000KT 7SM BCFG FEW004 SCT018 BKN050 07/07 A3026 RMK AO2 RAE37 SLP253 P0000 T00670067 $
PAPG 122252Z 00000KT 7SM BCFG FEW004 SCT018 BKN050 07/07 A3026 RMK AO2 RAE37 P0000 $